Ermua, Spain
Current Conditions -  °F | °C
As of 12:00 PM on Wednesday 26 Nov 2014 (Local Time) from LEBB Reporting Station
Broken Clouds Broken Clouds  
Wind Chill: 57°   Ceiling: 2200
Heat Index: 57°   Visibility: 5mi
Dew Point: 54°   Wind: 1mph
Humidity: 88%   Direction: NA
Pressure: 29.94"   Gusts: NA
Location:  43.18°N, 2.5°W
Report Text: LEBB 261100Z VRB01KT 8000 FEW008 BKN022 14/12 Q1014 NOSIG
Loading
Personal Weather Stations






























Interactive Weather Map New forecast layout! Learn more

10-Day Weather Forecast

Advertisements
Track Severe Weather on mobile